sensor_id;sensor_type;location;lat;lon;timestamp;pressure;altitude;pressure_sealevel;temperature;humidity
6343;BME280;3204;42.698;23.298;2023-02-02T00:01:22;95011.38;;;5.78;61.26
6343;BME280;3204;42.698;23.298;2023-02-02T00:03:48;95028.63;;;5.67;60.43
6343;BME280;3204;42.698;23.298;2023-02-02T00:06:16;95023.78;;;5.69;60.79
6343;BME280;3204;42.698;23.298;2023-02-02T00:08:42;95016.25;;;5.66;60.49
6343;BME280;3204;42.698;23.298;2023-02-02T00:11:08;95017.28;;;5.75;60.32
6343;BME280;3204;42.698;23.298;2023-02-02T00:13:33;95014.59;;;5.75;60.21
6343;BME280;3204;42.698;23.298;2023-02-02T00:16:40;95013.97;;;5.98;59.25
6343;BME280;3204;42.698;23.298;2023-02-02T00:19:13;95009.78;;;5.77;59.59
6343;BME280;3204;42.698;23.298;2023-02-02T00:21:39;95017.53;;;5.88;59.49
6343;BME280;3204;42.698;23.298;2023-02-02T00:24:07;95022.59;;;5.95;59.22
6343;BME280;3204;42.698;23.298;2023-02-02T00:26:33;95026.41;;;5.89;59.62
6343;BME280;3204;42.698;23.298;2023-02-02T00:28:59;95019.75;;;5.71;60.17
6343;BME280;3204;42.698;23.298;2023-02-02T00:31:24;95024.91;;;5.63;60.39
6343;BME280;3204;42.698;23.298;2023-02-02T00:33:50;95032.41;;;5.66;60.24
6343;BME280;3204;42.698;23.298;2023-02-02T00:36:16;95030.81;;;5.65;60.74
6343;BME280;3204;42.698;23.298;2023-02-02T00:38:42;95036.44;;;5.68;60.66
6343;BME280;3204;42.698;23.298;2023-02-02T00:41:08;95023.25;;;5.67;61.00
6343;BME280;3204;42.698;23.298;2023-02-02T00:43:34;95027.81;;;5.71;61.02
6343;BME280;3204;42.698;23.298;2023-02-02T00:45:59;95031.88;;;5.69;61.25
6343;BME280;3204;42.698;23.298;2023-02-02T00:48:25;95035.66;;;5.63;60.95
6343;BME280;3204;42.698;23.298;2023-02-02T00:50:51;95031.06;;;5.63;60.83
6343;BME280;3204;42.698;23.298;2023-02-02T00:53:17;95035.63;;;5.68;61.12
6343;BME280;3204;42.698;23.298;2023-02-02T00:55:43;95035.63;;;5.68;61.41
6343;BME280;3204;42.698;23.298;2023-02-02T00:58:08;95033.50;;;5.60;62.33
6343;BME280;3204;42.698;23.298;2023-02-02T01:00:34;95016.31;;;5.56;62.72
6343;BME280;3204;42.698;23.298;2023-02-02T01:03:02;95019.56;;;5.58;62.98
6343;BME280;3204;42.698;23.298;2023-02-02T01:05:35;95013.59;;;5.61;62.98
6343;BME280;3204;42.698;23.298;2023-02-02T01:08:01;95012.53;;;5.57;63.24
6343;BME280;3204;42.698;23.298;2023-02-02T01:10:26;95005.31;;;5.52;63.32
6343;BME280;3204;42.698;23.298;2023-02-02T01:12:52;94998.56;;;5.55;63.61
6343;BME280;3204;42.698;23.298;2023-02-02T01:15:18;94992.94;;;5.51;63.72
6343;BME280;3204;42.698;23.298;2023-02-02T01:17:44;94983.53;;;5.54;63.59
6343;BME280;3204;42.698;23.298;2023-02-02T01:20:15;94993.09;;;5.75;63.58
6343;BME280;3204;42.698;23.298;2023-02-02T01:22:40;94993.38;;;5.68;63.27
6343;BME280;3204;42.698;23.298;2023-02-02T01:25:06;94991.31;;;5.55;63.63
6343;BME280;3204;42.698;23.298;2023-02-02T01:27:32;94986.56;;;5.32;64.14
6343;BME280;3204;42.698;23.298;2023-02-02T01:29:57;94984.03;;;5.56;64.27
6343;BME280;3204;42.698;23.298;2023-02-02T01:32:22;94987.34;;;5.33;64.23
6343;BME280;3204;42.698;23.298;2023-02-02T01:34:48;94994.69;;;5.22;65.04
6343;BME280;3204;42.698;23.298;2023-02-02T01:37:13;94986.34;;;5.19;65.27
6343;BME280;3204;42.698;23.298;2023-02-02T01:39:38;94990.59;;;5.35;64.62
6343;BME280;3204;42.698;23.298;2023-02-02T01:42:12;94986.31;;;5.34;65.13
6343;BME280;3204;42.698;23.298;2023-02-02T01:45:05;94986.34;;;5.19;65.23
6343;BME280;3204;42.698;23.298;2023-02-02T01:47:38;94977.28;;;4.95;66.61
6343;BME280;3204;42.698;23.298;2023-02-02T01:50:08;94970.63;;;4.72;66.81
6343;BME280;3204;42.698;23.298;2023-02-02T01:52:34;94967.66;;;4.74;67.20
6343;BME280;3204;42.698;23.298;2023-02-02T01:55:04;94967.16;;;4.57;67.67
6343;BME280;3204;42.698;23.298;2023-02-02T01:57:40;94966.09;;;4.48;67.84
6343;BME280;3204;42.698;23.298;2023-02-02T02:00:10;94958.88;;;4.38;68.12
6343;BME280;3204;42.698;23.298;2023-02-02T02:02:37;94954.84;;;4.31;68.91
6343;BME280;3204;42.698;23.298;2023-02-02T02:05:05;94923.19;;;4.13;69.24
6343;BME280;3204;42.698;23.298;2023-02-02T02:07:31;94944.09;;;4.36;69.50
6343;BME280;3204;42.698;23.298;2023-02-02T02:09:57;94949.97;;;4.48;69.66
6343;BME280;3204;42.698;23.298;2023-02-02T02:12:22;94948.63;;;4.45;69.08
6343;BME280;3204;42.698;23.298;2023-02-02T02:14:49;94956.16;;;4.43;69.25
6343;BME280;3204;42.698;23.298;2023-02-02T02:17:44;94953.22;;;4.50;69.00
6343;BME280;3204;42.698;23.298;2023-02-02T02:39:53;94954.28;;;4.24;69.91
6343;BME280;3204;42.698;23.298;2023-02-02T02:42:24;94952.97;;;4.16;70.88
6343;BME280;3204;42.698;23.298;2023-02-02T02:44:53;94955.91;;;4.00;71.22
6343;BME280;3204;42.698;23.298;2023-02-02T02:47:21;94958.06;;;3.98;71.05
6343;BME280;3204;42.698;23.298;2023-02-02T02:49:47;94950.53;;;3.95;71.64
6343;BME280;3204;42.698;23.298;2023-02-02T02:52:14;94951.63;;;3.84;71.39
6343;BME280;3204;42.698;23.298;2023-02-02T02:54:51;94951.88;;;4.02;71.69
6343;BME280;3204;42.698;23.298;2023-02-02T03:00:47;94951.09;;;3.97;71.57
6343;BME280;3204;42.698;23.298;2023-02-02T03:04:12;94949.47;;;3.96;71.55
6343;BME280;3204;42.698;23.298;2023-02-02T03:09:12;94943.56;;;3.94;71.13
6343;BME280;3204;42.698;23.298;2023-02-02T03:11:40;94948.41;;;3.92;71.29
6343;BME280;3204;42.698;23.298;2023-02-02T03:14:05;94952.69;;;3.93;71.83
6343;BME280;3204;42.698;23.298;2023-02-02T03:16:35;94947.06;;;3.89;72.25
6343;BME280;3204;42.698;23.298;2023-02-02T03:19:01;94937.94;;;3.80;71.52
6343;BME280;3204;42.698;23.298;2023-02-02T03:21:26;94944.09;;;3.91;71.86
6343;BME280;3204;42.698;23.298;2023-02-02T03:23:52;94946.50;;;3.92;71.74
6343;BME280;3204;42.698;23.298;2023-02-02T03:26:17;94945.19;;;3.95;71.90
6343;BME280;3204;42.698;23.298;2023-02-02T03:28:43;94940.06;;;3.98;71.97
6343;BME280;3204;42.698;23.298;2023-02-02T03:31:09;94947.84;;;3.95;71.32
6343;BME280;3204;42.698;23.298;2023-02-02T03:33:34;94941.44;;;4.06;71.85
6343;BME280;3204;42.698;23.298;2023-02-02T03:36:01;94948.94;;;4.09;71.31
6343;BME280;3204;42.698;23.298;2023-02-02T03:38:26;94949.75;;;3.99;71.27
6343;BME280;3204;42.698;23.298;2023-02-02T03:40:52;94942.50;;;3.80;72.21
6343;BME280;3204;42.698;23.298;2023-02-02T03:43:21;94943.56;;;3.89;72.05
6343;BME280;3204;42.698;23.298;2023-02-02T03:45:47;94940.06;;;3.83;72.52
6343;BME280;3204;42.698;23.298;2023-02-02T03:48:12;94946.78;;;3.86;71.94
6343;BME280;3204;42.698;23.298;2023-02-02T03:50:38;94946.50;;;3.87;72.20
6343;BME280;3204;42.698;23.298;2023-02-02T03:53:04;94948.94;;;3.74;72.87
6343;BME280;3204;42.698;23.298;2023-02-02T03:55:30;94955.38;;;3.73;73.35
6343;BME280;3204;42.698;23.298;2023-02-02T03:57:55;94952.13;;;3.61;72.97
6343;BME280;3204;42.698;23.298;2023-02-02T04:00:21;94948.03;;;3.38;74.36
6343;BME280;3204;42.698;23.298;2023-02-02T04:02:46;94947.19;;;3.23;73.95
6343;BME280;3204;42.698;23.298;2023-02-02T04:05:12;94953.59;;;3.17;74.54
6343;BME280;3204;42.698;23.298;2023-02-02T04:07:37;94970.19;;;3.09;75.04
6343;BME280;3204;42.698;23.298;2023-02-02T04:10:03;94958.34;;;2.95;75.91
6343;BME280;3204;42.698;23.298;2023-02-02T04:12:29;94949.22;;;2.96;75.23
6343;BME280;3204;42.698;23.298;2023-02-02T04:14:54;94948.22;;;3.07;75.01
6343;BME280;3204;42.698;23.298;2023-02-02T04:17:20;94957.31;;;3.11;75.42
6343;BME280;3204;42.698;23.298;2023-02-02T04:19:46;94967.72;;;2.97;75.21
6343;BME280;3204;42.698;23.298;2023-02-02T04:22:11;94968.81;;;3.06;75.51
6343;BME280;3204;42.698;23.298;2023-02-02T04:24:36;94964.28;;;3.07;74.89
6343;BME280;3204;42.698;23.298;2023-02-02T04:27:02;94963.16;;;2.93;75.30
6343;BME280;3204;42.698;23.298;2023-02-02T04:29:27;94959.66;;;2.92;75.02
6343;BME280;3204;42.698;23.298;2023-02-02T04:31:53;94961.56;;;2.97;75.58
6343;BME280;3204;42.698;23.298;2023-02-02T04:34:19;94955.44;;;3.06;75.50
6343;BME280;3204;42.698;23.298;2023-02-02T04:36:45;94950.22;;;2.80;76.39
6343;BME280;3204;42.698;23.298;2023-02-02T04:39:11;94950.22;;;2.75;76.46
6343;BME280;3204;42.698;23.298;2023-02-02T04:41:36;94952.84;;;2.65;77.30
6343;BME280;3204;42.698;23.298;2023-02-02T04:44:02;94961.44;;;2.72;76.65
6343;BME280;3204;42.698;23.298;2023-02-02T04:46:28;94965.19;;;2.71;77.17
6343;BME280;3204;42.698;23.298;2023-02-02T04:48:53;94965.69;;;2.68;76.58
6343;BME280;3204;42.698;23.298;2023-02-02T04:51:19;94965.63;;;2.58;77.44
6343;BME280;3204;42.698;23.298;2023-02-02T04:53:45;94966.09;;;2.45;77.58
6343;BME280;3204;42.698;23.298;2023-02-02T04:56:16;94970.59;;;2.39;78.35
6343;BME280;3204;42.698;23.298;2023-02-02T04:58:42;94963.91;;;2.37;78.61
6343;BME280;3204;42.698;23.298;2023-02-02T05:01:10;94978.38;;;2.41;78.50
6343;BME280;3204;42.698;23.298;2023-02-02T05:03:36;94981.88;;;2.46;78.00
6343;BME280;3204;42.698;23.298;2023-02-02T05:06:02;94972.00;;;2.47;78.09
6343;BME280;3204;42.698;23.298;2023-02-02T05:08:28;94982.66;;;2.42;77.67
6343;BME280;3204;42.698;23.298;2023-02-02T05:10:53;94981.00;;;2.31;78.08
6343;BME280;3204;42.698;23.298;2023-02-02T05:13:19;94977.25;;;2.32;78.69
6343;BME280;3204;42.698;23.298;2023-02-02T05:15:44;94976.22;;;2.38;78.37
6343;BME280;3204;42.698;23.298;2023-02-02T05:18:10;94972.44;;;2.34;78.14
6343;BME280;3204;42.698;23.298;2023-02-02T05:20:35;94971.47;;;2.45;78.92
6343;BME280;3204;42.698;23.298;2023-02-02T05:23:01;94972.47;;;2.39;77.24
6343;BME280;3204;42.698;23.298;2023-02-02T05:25:27;94973.47;;;2.28;77.54
6343;BME280;3204;42.698;23.298;2023-02-02T05:27:52;94959.63;;;2.36;77.82
6343;BME280;3204;42.698;23.298;2023-02-02T05:30:18;94972.22;;;2.40;77.30
6343;BME280;3204;42.698;23.298;2023-02-02T05:32:43;94974.16;;;2.50;77.04
6343;BME280;3204;42.698;23.298;2023-02-02T05:35:09;94981.13;;;2.51;76.80
6343;BME280;3204;42.698;23.298;2023-02-02T05:37:35;94972.22;;;2.40;76.50
6343;BME280;3204;42.698;23.298;2023-02-02T05:40:01;94984.28;;;2.43;76.88
6343;BME280;3204;42.698;23.298;2023-02-02T05:42:26;94977.72;;;2.24;76.97
6343;BME280;3204;42.698;23.298;2023-02-02T05:44:52;94988.88;;;2.16;77.25
6343;BME280;3204;42.698;23.298;2023-02-02T05:47:17;94992.22;;;2.33;77.63
6343;BME280;3204;42.698;23.298;2023-02-02T05:49:43;94982.84;;;2.30;77.32
6343;BME280;3204;42.698;23.298;2023-02-02T05:52:16;94982.66;;;2.42;76.82
6343;BME280;3204;42.698;23.298;2023-02-02T05:54:44;94985.25;;;2.27;76.71
6343;BME280;3204;42.698;23.298;2023-02-02T05:57:10;94986.97;;;2.48;76.90
6343;BME280;3204;42.698;23.298;2023-02-02T05:59:35;94986.69;;;2.44;77.15
6343;BME280;3204;42.698;23.298;2023-02-02T06:02:00;94996.25;;;2.35;76.72
6343;BME280;3204;42.698;23.298;2023-02-02T06:04:26;94995.94;;;2.27;76.83
6343;BME280;3204;42.698;23.298;2023-02-02T06:06:51;94990.72;;;2.10;76.79
6343;BME280;3204;42.698;23.298;2023-02-02T06:09:17;94999.22;;;2.02;77.26
6343;BME280;3204;42.698;23.298;2023-02-02T06:11:43;94999.63;;;1.89;78.24
6343;BME280;3204;42.698;23.298;2023-02-02T06:14:09;95007.63;;;1.89;78.92
6343;BME280;3204;42.698;23.298;2023-02-02T06:16:34;94997.56;;;1.96;78.57
6343;BME280;3204;42.698;23.298;2023-02-02T06:19:00;94998.91;;;1.99;78.41
6343;BME280;3204;42.698;23.298;2023-02-02T06:21:25;95009.41;;;2.05;78.07
6343;BME280;3204;42.698;23.298;2023-02-02T06:23:51;95006.69;;;2.00;77.94
6343;BME280;3204;42.698;23.298;2023-02-02T06:26:17;95007.31;;;2.12;77.25
6343;BME280;3204;42.698;23.298;2023-02-02T06:28:47;95025.56;;;2.20;77.51
6343;BME280;3204;42.698;23.298;2023-02-02T06:31:13;95017.06;;;2.23;77.22
6343;BME280;3204;42.698;23.298;2023-02-02T06:33:43;95029.44;;;2.34;76.26
6343;BME280;3204;42.698;23.298;2023-02-02T06:36:09;95013.25;;;2.51;76.41
6343;BME280;3204;42.698;23.298;2023-02-02T06:38:34;95018.16;;;2.64;75.96
6343;BME280;3204;42.698;23.298;2023-02-02T06:41:00;95033.25;;;2.80;75.75
6343;BME280;3204;42.698;23.298;2023-02-02T06:43:27;95034.78;;;2.71;75.12
6343;BME280;3204;42.698;23.298;2023-02-02T06:45:53;95033.75;;;2.77;75.10
6343;BME280;3204;42.698;23.298;2023-02-02T06:48:18;95019.06;;;2.84;74.23
6343;BME280;3204;42.698;23.298;2023-02-02T06:50:43;95021.03;;;2.99;73.64
6343;BME280;3204;42.698;23.298;2023-02-02T06:53:09;95024.59;;;3.14;73.20
6343;BME280;3204;42.698;23.298;2023-02-02T06:55:34;95029.13;;;3.14;73.29
6343;BME280;3204;42.698;23.298;2023-02-02T06:58:00;95034.59;;;3.39;72.11
6343;BME280;3204;42.698;23.298;2023-02-02T07:00:27;95044.84;;;3.47;71.41
6343;BME280;3204;42.698;23.298;2023-02-02T07:02:53;95041.91;;;3.53;71.22
6343;BME280;3204;42.698;23.298;2023-02-02T07:05:19;95050.22;;;3.57;70.61
6343;BME280;3204;42.698;23.298;2023-02-02T07:07:45;95039.53;;;3.67;70.43
6343;BME280;3204;42.698;23.298;2023-02-02T07:10:11;95032.31;;;3.77;70.61
6343;BME280;3204;42.698;23.298;2023-02-02T07:12:37;95030.25;;;3.99;69.23
6343;BME280;3204;42.698;23.298;2023-02-02T07:15:03;95036.16;;;4.11;67.41
6343;BME280;3204;42.698;23.298;2023-02-02T07:17:29;95043.94;;;4.28;67.40
6343;BME280;3204;42.698;23.298;2023-02-02T07:19:55;95043.69;;;4.39;66.81
6343;BME280;3204;42.698;23.298;2023-02-02T07:22:20;95044.50;;;4.45;65.87
6343;BME280;3204;42.698;23.298;2023-02-02T07:24:46;95050.97;;;4.54;65.58
6343;BME280;3204;42.698;23.298;2023-02-02T07:27:12;95054.16;;;4.81;64.38
6343;BME280;3204;42.698;23.298;2023-02-02T07:29:37;95056.28;;;4.99;63.44
6343;BME280;3204;42.698;23.298;2023-02-02T07:32:06;95065.94;;;5.05;63.96
6343;BME280;3204;42.698;23.298;2023-02-02T07:34:31;95066.44;;;5.27;63.91
6343;BME280;3204;42.698;23.298;2023-02-02T07:36:57;95064.81;;;5.31;65.23
6343;BME280;3204;42.698;23.298;2023-02-02T07:39:22;95058.41;;;5.12;66.03
6343;BME280;3204;42.698;23.298;2023-02-02T07:41:48;95056.22;;;5.19;65.48
6343;BME280;3204;42.698;23.298;2023-02-02T07:44:13;95065.63;;;5.31;65.42
6343;BME280;3204;42.698;23.298;2023-02-02T07:46:43;95052.50;;;5.15;66.09
6343;BME280;3204;42.698;23.298;2023-02-02T07:49:12;95042.84;;;5.04;67.14
6343;BME280;3204;42.698;23.298;2023-02-02T07:51:39;95031.84;;;4.90;68.02
6343;BME280;3204;42.698;23.298;2023-02-02T07:54:04;95029.44;;;4.79;68.29
6343;BME280;3204;42.698;23.298;2023-02-02T07:56:30;95029.94;;;4.91;68.42
6343;BME280;3204;42.698;23.298;2023-02-02T07:58:56;95036.38;;;5.00;67.55
6343;BME280;3204;42.698;23.298;2023-02-02T08:01:23;95031.03;;;4.90;67.74
6343;BME280;3204;42.698;23.298;2023-02-02T08:03:51;95014.41;;;4.78;67.89
6343;BME280;3204;42.698;23.298;2023-02-02T08:06:23;95016.81;;;4.74;68.08
6343;BME280;3204;42.698;23.298;2023-02-02T08:08:49;95016.00;;;4.84;68.50
6343;BME280;3204;42.698;23.298;2023-02-02T08:11:17;95015.72;;;4.95;68.29
6343;BME280;3204;42.698;23.298;2023-02-02T08:13:44;95019.69;;;5.13;67.16
6343;BME280;3204;42.698;23.298;2023-02-02T08:16:12;95017.25;;;5.21;67.26
6343;BME280;3204;42.698;23.298;2023-02-02T08:18:37;95019.09;;;5.36;66.72
6343;BME280;3204;42.698;23.298;2023-02-02T08:21:04;95012.03;;;5.55;65.98
6343;BME280;3204;42.698;23.298;2023-02-02T08:23:30;95017.63;;;5.63;66.24
6343;BME280;3204;42.698;23.298;2023-02-02T08:26:07;95013.53;;;5.76;65.77
6343;BME280;3204;42.698;23.298;2023-02-02T08:28:33;95017.03;;;5.76;65.79
6343;BME280;3204;42.698;23.298;2023-02-02T08:31:09;95015.59;;;5.94;65.23
6343;BME280;3204;42.698;23.298;2023-02-02T08:33:35;95012.91;;;5.94;63.72
6343;BME280;3204;42.698;23.298;2023-02-02T08:36:02;95016.38;;;6.04;64.83
6343;BME280;3204;42.698;23.298;2023-02-02T08:38:28;95006.31;;;6.20;63.42
6343;BME280;3204;42.698;23.298;2023-02-02T08:40:53;95017.97;;;6.44;63.13
6343;BME280;3204;42.698;23.298;2023-02-02T08:43:19;95009.91;;;6.72;60.62
6343;BME280;3204;42.698;23.298;2023-02-02T08:45:44;95008.44;;;6.85;59.87
6343;BME280;3204;42.698;23.298;2023-02-02T08:48:10;94994.13;;;6.89;60.94
6343;BME280;3204;42.698;23.298;2023-02-02T08:50:37;94987.16;;;7.12;58.97
6343;BME280;3204;42.698;23.298;2023-02-02T08:53:02;94995.06;;;7.27;59.07
6343;BME280;3204;42.698;23.298;2023-02-02T08:55:28;94979.09;;;7.30;58.30
6343;BME280;3204;42.698;23.298;2023-02-02T08:57:53;94993.41;;;7.31;57.82
6343;BME280;3204;42.698;23.298;2023-02-02T09:00:19;94985.19;;;7.41;58.34
6343;BME280;3204;42.698;23.298;2023-02-02T09:02:49;94990.66;;;7.36;58.41
6343;BME280;3204;42.698;23.298;2023-02-02T09:05:14;94990.72;;;7.54;58.09
6343;BME280;3204;42.698;23.298;2023-02-02T09:07:40;94977.25;;;7.73;57.62
6343;BME280;3204;42.698;23.298;2023-02-02T09:10:05;94980.81;;;7.68;58.31
6343;BME280;3204;42.698;23.298;2023-02-02T09:12:31;94974.59;;;7.68;58.40
6343;BME280;3204;42.698;23.298;2023-02-02T09:14:57;94975.28;;;7.78;58.55
6343;BME280;3204;42.698;23.298;2023-02-02T09:17:22;94973.25;;;8.07;57.61
6343;BME280;3204;42.698;23.298;2023-02-02T09:19:48;94972.53;;;8.20;58.20
6343;BME280;3204;42.698;23.298;2023-02-02T09:22:14;94981.50;;;8.16;58.08
6343;BME280;3204;42.698;23.298;2023-02-02T09:24:39;94982.03;;;8.36;57.16
6343;BME280;3204;42.698;23.298;2023-02-02T09:27:05;94979.75;;;8.25;57.65
6343;BME280;3204;42.698;23.298;2023-02-02T09:29:30;94965.59;;;8.33;56.85
6343;BME280;3204;42.698;23.298;2023-02-02T09:31:55;94970.22;;;8.46;56.22
6343;BME280;3204;42.698;23.298;2023-02-02T09:34:21;94958.34;;;8.47;55.77
6343;BME280;3204;42.698;23.298;2023-02-02T09:36:47;94966.19;;;8.30;56.14
6343;BME280;3204;42.698;23.298;2023-02-02T09:39:12;94963.88;;;8.37;56.37
6343;BME280;3204;42.698;23.298;2023-02-02T09:52:28;94950.63;;;8.40;57.12
6343;BME280;3204;42.698;23.298;2023-02-02T09:55:01;94946.06;;;8.54;56.70
6343;BME280;3204;42.698;23.298;2023-02-02T09:57:34;94945.78;;;8.69;56.54
6343;BME280;3204;42.698;23.298;2023-02-02T10:00:01;94948.69;;;8.73;55.73
6343;BME280;3204;42.698;23.298;2023-02-02T10:02:36;94940.13;;;8.98;55.10
6343;BME280;3204;42.698;23.298;2023-02-02T10:05:17;94934.31;;;9.04;53.87
6343;BME280;3204;42.698;23.298;2023-02-02T10:07:46;94934.13;;;8.87;54.48
6343;BME280;3204;42.698;23.298;2023-02-02T10:10:18;94939.13;;;8.94;54.81
6343;BME280;3204;42.698;23.298;2023-02-02T10:12:59;94932.00;;;8.98;54.68
6343;BME280;3204;42.698;23.298;2023-02-02T10:15:49;94931.91;;;9.03;54.59
6343;BME280;3204;42.698;23.298;2023-02-02T10:18:47;94926.81;;;9.28;53.48
6343;BME280;3204;42.698;23.298;2023-02-02T10:24:02;94913.97;;;9.47;53.26
6343;BME280;3204;42.698;23.298;2023-02-02T10:26:39;94915.88;;;9.33;54.46
6343;BME280;3204;42.698;23.298;2023-02-02T10:29:15;94912.59;;;9.36;54.58
6343;BME280;3204;42.698;23.298;2023-02-02T10:34:26;94903.44;;;9.59;53.87
6343;BME280;3204;42.698;23.298;2023-02-02T10:37:06;94904.75;;;9.62;53.07
6343;BME280;3204;42.698;23.298;2023-02-02T10:44:54;94870.25;;;9.89;52.37
6343;BME280;3204;42.698;23.298;2023-02-02T10:47:28;94859.72;;;9.66;52.19
6343;BME280;3204;42.698;23.298;2023-02-02T10:50:12;94869.16;;;9.55;52.72
6343;BME280;3204;42.698;23.298;2023-02-02T10:53:01;94861.94;;;9.50;52.67
6343;BME280;3204;42.698;23.298;2023-02-02T10:55:39;94855.94;;;9.53;52.10
6343;BME280;3204;42.698;23.298;2023-02-02T10:58:17;94843.25;;;9.62;53.33
6343;BME280;3204;42.698;23.298;2023-02-02T11:03:16;94847.06;;;9.75;52.80
6343;BME280;3204;42.698;23.298;2023-02-02T11:05:44;94844.41;;;9.83;53.04
6343;BME280;3204;42.698;23.298;2023-02-02T11:08:37;94843.34;;;9.93;52.47
6343;BME280;3204;42.698;23.298;2023-02-02T11:11:16;94834.13;;;9.94;52.05
6343;BME280;3204;42.698;23.298;2023-02-02T11:13:52;94848.41;;;9.86;52.40
6343;BME280;3204;42.698;23.298;2023-02-02T11:16:21;94840.88;;;9.83;51.71
6343;BME280;3204;42.698;23.298;2023-02-02T11:18:47;94827.16;;;9.79;52.18
6343;BME280;3204;42.698;23.298;2023-02-02T11:23:58;94819.91;;;9.88;52.41
6343;BME280;3204;42.698;23.298;2023-02-02T11:26:25;94817.06;;;9.93;52.22
6343;BME280;3204;42.698;23.298;2023-02-02T11:28:55;94804.69;;;10.01;50.77
6343;BME280;3204;42.698;23.298;2023-02-02T11:31:31;94808.00;;;9.98;51.65
6343;BME280;3204;42.698;23.298;2023-02-02T11:34:27;94795.56;;;9.97;51.12
6343;BME280;3204;42.698;23.298;2023-02-02T11:39:34;94788.44;;;10.01;51.24
6343;BME280;3204;42.698;23.298;2023-02-02T11:42:01;94793.31;;;10.12;50.81
6343;BME280;3204;42.698;23.298;2023-02-02T11:44:29;94794.16;;;10.13;51.64
6343;BME280;3204;42.698;23.298;2023-02-02T11:46:57;94787.81;;;10.26;50.95
6343;BME280;3204;42.698;23.298;2023-02-02T11:49:23;94784.97;;;10.31;51.28
6343;BME280;3204;42.698;23.298;2023-02-02T11:52:01;94777.53;;;10.36;50.79
6343;BME280;3204;42.698;23.298;2023-02-02T11:54:33;94781.97;;;10.32;51.35
6343;BME280;3204;42.698;23.298;2023-02-02T11:57:06;94787.94;;;10.43;50.54
6343;BME280;3204;42.698;23.298;2023-02-02T11:59:36;94784.22;;;10.39;50.51
6343;BME280;3204;42.698;23.298;2023-02-02T12:04:39;94778.53;;;10.49;51.91
6343;BME280;3204;42.698;23.298;2023-02-02T12:07:24;94774.94;;;10.62;51.49
6343;BME280;3204;42.698;23.298;2023-02-02T12:09:51;94778.19;;;10.81;51.09
6343;BME280;3204;42.698;23.298;2023-02-02T12:12:44;94774.88;;;10.84;50.59
6343;BME280;3204;42.698;23.298;2023-02-02T12:15:21;94781.44;;;10.91;50.69
6343;BME280;3204;42.698;23.298;2023-02-02T12:17:55;94768.16;;;10.81;50.87
6343;BME280;3204;42.698;23.298;2023-02-02T12:20:51;94773.69;;;10.76;51.22
6343;BME280;3204;42.698;23.298;2023-02-02T12:32:25;94794.94;;;10.44;48.32
6343;BME280;3204;42.698;23.298;2023-02-02T12:49:10;94781.53;;;10.39;47.75
6343;BME280;3204;42.698;23.298;2023-02-02T13:07:57;94772.63;;;9.94;47.82
6343;BME280;3204;42.698;23.298;2023-02-02T13:10:33;94773.16;;;9.83;48.11
6343;BME280;3204;42.698;23.298;2023-02-02T13:13:24;94778.88;;;9.81;47.99
6343;BME280;3204;42.698;23.298;2023-02-02T13:15:58;94772.75;;;9.89;47.98
6343;BME280;3204;42.698;23.298;2023-02-02T13:18:54;94786.59;;;9.88;48.61
6343;BME280;3204;42.698;23.298;2023-02-02T13:21:22;94777.00;;;9.82;49.28
6343;BME280;3204;42.698;23.298;2023-02-02T13:23:50;94763.75;;;9.80;49.87
6343;BME280;3204;42.698;23.298;2023-02-02T13:26:19;94761.47;;;9.96;49.16
6343;BME280;3204;42.698;23.298;2023-02-02T13:29:05;94768.88;;;10.04;47.81
6343;BME280;3204;42.698;23.298;2023-02-02T13:31:40;94773.41;;;10.17;47.53
6343;BME280;3204;42.698;23.298;2023-02-02T13:36:53;94763.97;;;10.36;46.92
6343;BME280;3204;42.698;23.298;2023-02-02T13:39:31;94769.56;;;10.79;46.62
6343;BME280;3204;42.698;23.298;2023-02-02T13:41:58;94769.97;;;11.11;46.32
6343;BME280;3204;42.698;23.298;2023-02-02T13:44:34;94774.50;;;11.24;45.97
6343;BME280;3204;42.698;23.298;2023-02-02T13:47:10;94771.13;;;11.19;46.09
6343;BME280;3204;42.698;23.298;2023-02-02T13:49:43;94764.47;;;10.86;47.23
6343;BME280;3204;42.698;23.298;2023-02-02T13:55:42;94764.66;;;10.89;47.50
6343;BME280;3204;42.698;23.298;2023-02-02T13:58:21;94766.66;;;11.23;47.26
6343;BME280;3204;42.698;23.298;2023-02-02T14:00:55;94782.38;;;11.77;46.82
6343;BME280;3204;42.698;23.298;2023-02-02T14:03:28;94778.66;;;12.07;48.01
6343;BME280;3204;42.698;23.298;2023-02-02T14:06:14;94767.47;;;12.17;48.59
6343;BME280;3204;42.698;23.298;2023-02-02T14:08:55;94771.66;;;12.14;49.82
6343;BME280;3204;42.698;23.298;2023-02-02T14:13:52;94751.53;;;12.53;48.26
6343;BME280;3204;42.698;23.298;2023-02-02T14:24:45;94780.75;;;12.10;49.44
6343;BME280;3204;42.698;23.298;2023-02-02T14:34:53;94791.06;;;10.67;57.91
6343;BME280;3204;42.698;23.298;2023-02-02T14:45:35;94840.19;;;8.02;69.98
6343;BME280;3204;42.698;23.298;2023-02-02T14:55:55;94898.97;;;6.89;78.38
6343;BME280;3204;42.698;23.298;2023-02-02T15:06:39;94933.50;;;5.96;83.53
6343;BME280;3204;42.698;23.298;2023-02-02T15:22:52;94986.31;;;5.34;84.66
6343;BME280;3204;42.698;23.298;2023-02-02T15:28:01;94985.34;;;4.90;86.24
6343;BME280;3204;42.698;23.298;2023-02-02T15:30:29;94990.72;;;4.90;86.53
6343;BME280;3204;42.698;23.298;2023-02-02T15:33:01;94983.78;;;4.79;87.22
6343;BME280;3204;42.698;23.298;2023-02-02T15:35:29;94989.41;;;4.72;87.92
6343;BME280;3204;42.698;23.298;2023-02-02T15:38:00;94982.44;;;4.81;87.34
6343;BME280;3204;42.698;23.298;2023-02-02T15:40:29;94983.22;;;4.72;87.15
6343;BME280;3204;42.698;23.298;2023-02-02T15:43:00;94982.72;;;4.65;87.81
6343;BME280;3204;42.698;23.298;2023-02-02T15:47:53;95002.88;;;4.52;88.28
6343;BME280;3204;42.698;23.298;2023-02-02T15:50:20;95001.81;;;4.48;88.26
6343;BME280;3204;42.698;23.298;2023-02-02T15:52:50;95010.94;;;4.47;88.50
6343;BME280;3204;42.698;23.298;2023-02-02T15:55:21;95014.44;;;4.58;87.89
6343;BME280;3204;42.698;23.298;2023-02-02T15:57:47;95022.47;;;4.53;87.91
6343;BME280;3204;42.698;23.298;2023-02-02T16:00:27;95035.91;;;4.63;87.36
6343;BME280;3204;42.698;23.298;2023-02-02T16:03:15;95035.09;;;4.72;86.49
6343;BME280;3204;42.698;23.298;2023-02-02T16:05:46;95023.03;;;4.50;87.23
6343;BME280;3204;42.698;23.298;2023-02-02T16:08:17;95024.88;;;4.54;87.38
6343;BME280;3204;42.698;23.298;2023-02-02T16:10:43;95027.31;;;4.46;87.19
6343;BME280;3204;42.698;23.298;2023-02-02T16:13:21;95031.09;;;4.50;87.45
6343;BME280;3204;42.698;23.298;2023-02-02T16:15:54;95040.47;;;4.52;88.14